Time;durP1;ratioP1;P1;durP2;ratioP2;P2;SDS_P1;SDS_P2;PMS_P1;PMS_P2;Temp;Humidity;BMP_temperature;BMP_pressure;BME280_temperature;BME280_humidity;BME280_pressure;Samples;Min_cycle;Max_cycle;Signal;HPM_P1;HPM_P2
2021/12/13 00:01:15;;;;;;;;;;;10.40;99.90;;;;;;4895182;29;20537;-90
2021/12/13 00:04:18;;;;;;;225.70;44.97;;;10.40;99.90;;;;;;4900656;29;19931;-90
2021/12/13 00:07:09;;;;;;;259.70;46.70;;;10.30;99.90;;;;;;4953662;28;21068;-90
2021/12/13 00:09:46;;;;;;;303.33;49.25;;;10.40;99.90;;;;;;4891785;29;20192;-90
2021/12/13 00:12:38;;;;;;;237.88;48.13;;;10.30;99.90;;;;;;4897398;29;20039;-87
2021/12/13 00:15:35;;;;;;;286.52;50.33;;;10.30;99.90;;;;;;4927550;29;20134;-89
2021/12/13 00:18:22;;;;;;;230.80;48.63;;;10.40;99.90;;;;;;4915743;29;20047;-90
2021/12/13 00:20:59;;;;;;;233.77;48.65;;;10.30;99.90;;;;;;4913997;29;20047;-86
2021/12/13 00:23:39;;;;;;;222.20;47.15;;;10.40;99.90;;;;;;4898111;29;20435;-89
2021/12/13 00:26:46;;;;;;;250.15;48.30;;;10.40;99.90;;;;;;4862532;29;20056;-90
2021/12/13 00:29:33;;;;;;;202.00;44.58;;;10.40;99.90;;;;;;4866270;29;20431;-89
2021/12/13 00:32:23;;;;;;;233.25;46.72;;;10.40;99.90;;;;;;4902367;29;20048;-87
2021/12/13 00:34:57;;;;;;;249.82;47.20;;;10.30;99.90;;;;;;4913556;29;20047;-88
2021/12/13 00:37:35;;;;;;;210.63;46.65;;;10.40;99.90;;;;;;4912809;29;20047;-89
2021/12/13 00:40:26;;;;;;;212.43;46.65;;;10.40;99.90;;;;;;4914229;29;20035;-86
2021/12/13 00:43:25;;;;;;;213.80;46.53;;;10.40;99.90;;;;;;4895835;29;20377;-89
2021/12/13 00:46:15;;;;;;;250.85;47.92;;;10.40;99.90;;;;;;4924604;29;20043;-91
2021/12/13 00:48:48;;;;;;;252.85;48.92;;;10.40;99.90;;;;;;4928441;29;20036;-89
2021/12/13 00:51:52;;;;;;;253.98;47.92;;;10.40;99.90;;;;;;4932125;29;20039;-90
2021/12/13 00:54:35;;;;;;;203.88;45.00;;;10.40;99.90;;;;;;4870589;29;20059;-89
2021/12/13 00:57:29;;;;;;;200.80;43.85;;;10.40;99.90;;;;;;4929958;29;20138;-90
2021/12/13 01:00:18;;;;;;;192.68;45.83;;;10.40;99.90;;;;;;4943245;28;20544;-90
2021/12/13 01:02:59;;;;;;;195.23;43.53;;;10.40;99.90;;;;;;4927112;29;20047;-89
2021/12/13 01:05:40;;;;;;;217.02;45.47;;;10.40;99.90;;;;;;4926999;29;20043;-89
2021/12/13 01:08:51;;;;;;;214.95;44.58;;;10.40;99.90;;;;;;4887873;29;20106;-89
2021/12/13 01:11:53;;;;;;;200.45;44.70;;;10.40;99.90;;;;;;4899107;29;20239;-91
2021/12/13 01:14:59;;;;;;;206.20;43.73;;;10.40;99.90;;;;;;4916552;29;20066;-90
2021/12/13 01:18:26;;;;;;;228.50;44.05;;;10.40;99.90;;;;;;4902702;29;20048;-90
2021/12/13 01:21:53;;;;;;;190.73;41.63;;;10.40;99.90;;;;;;4918587;29;20463;-88
2021/12/13 01:27:36;;;;;;;171.20;40.70;;;10.40;99.90;;;;;;4927437;29;20482;-90
2021/12/13 01:30:23;;;;;;;;;;;;;;;;;;;;;
2021/12/13 01:33:01;;;;;;;;;;;10.40;99.90;;;;;;4915780;29;20111;-90
2021/12/13 01:35:31;;;;;;;214.57;40.92;;;10.50;99.90;;;;;;4910539;29;20365;-89
2021/12/13 01:38:03;;;;;;;201.27;41.22;;;10.40;99.90;;;;;;4914594;29;20051;-89
2021/12/13 01:40:34;;;;;;;181.48;40.05;;;10.40;99.90;;;;;;4932176;29;20508;-87
2021/12/13 01:43:22;;;;;;;161.02;36.70;;;10.40;99.90;;;;;;4874516;29;20048;-90
2021/12/13 01:46:19;;;;;;;134.65;33.63;;;10.40;99.90;;;;;;4926848;29;20078;-91
2021/12/13 01:48:48;;;;;;;155.60;35.47;;;10.40;99.90;;;;;;4880764;29;20602;-89
2021/12/13 01:51:19;;;;;;;129.90;34.60;;;10.40;99.90;;;;;;4891515;29;20036;-88
2021/12/13 01:53:53;;;;;;;140.02;33.50;;;10.40;99.90;;;;;;4914702;29;20052;-88
2021/12/13 02:01:09;;;;;;;103.95;29.70;;;10.30;99.90;;;;;;4854980;29;20037;-91
2021/12/13 02:03:56;;;;;;;88.95;26.25;;;10.40;99.90;;;;;;4946437;28;20086;-90
2021/12/13 02:07:01;;;;;;;94.40;29.02;;;10.40;99.90;;;;;;4889143;29;20062;-88
2021/12/13 02:10:04;;;;;;;105.00;29.33;;;10.30;99.90;;;;;;4897994;29;20298;-91
2021/12/13 02:12:39;;;;;;;;;;;10.40;99.90;;;;;;4921191;29;20050;-91
2021/12/13 02:18:56;;;;;;;118.30;30.42;;;10.40;99.90;;;;;;4936728;29;20341;-89
2021/12/13 02:21:50;;;;;;;99.32;29.70;;;10.40;99.90;;;;;;4932048;29;20286;-91
2021/12/13 02:24:29;;;;;;;98.03;29.70;;;10.30;99.90;;;;;;4876800;29;20088;-88
2021/12/13 02:26:58;;;;;;;93.28;31.55;;;10.40;99.90;;;;;;4932505;29;20490;-89
2021/12/13 02:29:49;;;;;;;92.88;32.80;;;10.40;99.90;;;;;;4896622;29;20032;-90
2021/12/13 02:32:15;;;;;;;98.63;32.53;;;10.40;99.90;;;;;;4893769;29;20047;-90
2021/12/13 02:35:02;;;;;;;115.75;35.40;;;10.30;99.90;;;;;;4886282;29;20490;-90
2021/12/13 02:37:47;;;;;;;93.13;33.00;;;10.30;99.90;;;;;;4905871;29;20043;-90
2021/12/13 02:40:18;;;;;;;124.97;36.67;;;10.30;99.90;;;;;;4919986;29;20486;-89
2021/12/13 02:42:57;;;;;;;152.27;36.45;;;10.30;99.90;;;;;;4886644;29;20054;-89
2021/12/13 02:45:46;;;;;;;129.90;36.10;;;10.40;99.90;;;;;;4941512;28;20046;-90
2021/12/13 02:48:30;;;;;;;146.98;37.15;;;10.30;99.90;;;;;;4901691;29;20062;-89
2021/12/13 02:51:12;;;;;;;147.57;36.90;;;10.40;99.90;;;;;;4930916;29;20152;-91
2021/12/13 02:54:13;;;;;;;142.10;37.88;;;10.40;99.90;;;;;;4927910;29;20071;-88
2021/12/13 02:57:15;;;;;;;134.05;36.13;;;10.30;99.90;;;;;;4931850;29;20044;-89
2021/12/13 03:00:42;;;;;;;123.43;34.90;;;10.30;99.90;;;;;;4855302;29;20081;-89
2021/12/13 03:03:37;;;;;;;128.07;35.75;;;10.40;99.90;;;;;;4811337;29;20090;-90
2021/12/13 03:06:12;;;;;;;105.47;34.13;;;10.30;99.90;;;;;;4849884;29;20045;-90
2021/12/13 03:08:49;;;;;;;113.20;35.38;;;10.30;99.90;;;;;;4855969;29;20047;-90
2021/12/13 03:24:56;;;;;;;103.20;35.42;;;10.30;99.90;;;;;;4924855;29;20187;-89
2021/12/13 03:28:30;;;;;;;80.00;31.50;;;10.30;99.90;;;;;;4924190;29;20063;-88
2021/12/13 03:31:09;;;;;;;87.53;32.05;;;10.20;99.90;;;;;;4840642;29;20078;-88
2021/12/13 03:33:51;;;;;;;79.90;30.77;;;10.20;99.90;;;;;;4825085;29;20065;-88
2021/12/13 03:36:23;;;;;;;83.03;31.63;;;10.20;99.90;;;;;;4821599;29;20100;-89
2021/12/13 03:38:55;;;;;;;68.20;28.30;;;10.20;99.90;;;;;;4822845;29;20095;-88
2021/12/13 03:41:26;;;;;;;72.03;28.63;;;10.20;99.90;;;;;;4806115;29;20054;-90
2021/12/13 03:44:07;;;;;;;85.90;28.70;;;10.20;99.90;;;;;;4837030;29;20129;-89
2021/12/13 03:46:46;;;;;;;72.82;27.83;;;10.20;99.90;;;;;;4817320;29;20404;-89
2021/12/13 03:49:21;;;;;;;65.38;24.70;;;10.10;99.90;;;;;;4882585;29;20039;-88
2021/12/13 03:51:48;;;;;;;68.25;26.25;;;10.10;99.90;;;;;;4929354;29;20036;-90
2021/12/13 03:54:22;;;;;;;70.93;27.38;;;10.10;99.90;;;;;;4912699;29;20130;-90
2021/12/13 03:56:50;;;;;;;61.13;25.65;;;10.10;99.90;;;;;;4892733;29;20048;-89
2021/12/13 03:59:27;;;;;;;59.03;24.08;;;10.10;99.90;;;;;;4912235;29;20518;-90
2021/12/13 04:02:31;;;;;;;62.50;23.92;;;10.10;99.90;;;;;;4913891;29;20039;-87
2021/12/13 04:05:23;;;;;;;;;;;10.00;99.90;;;;;;4910988;29;20044;-89
2021/12/13 04:07:55;;;;;;;48.80;21.85;;;9.90;99.90;;;;;;4906867;29;19925;-89
2021/12/13 04:10:32;;;;;;;58.33;23.13;;;9.90;99.90;;;;;;4899584;29;20258;-88
2021/12/13 04:13:09;;;;;;;54.20;21.25;;;9.90;99.90;;;;;;4912647;29;20048;-89
2021/12/13 04:16:09;;;;;;;53.17;22.98;;;9.90;99.90;;;;;;4903100;29;20364;-92
2021/12/13 04:21:34;;;;;;;50.63;21.00;;;9.80;99.90;;;;;;4912709;29;20517;-90
2021/12/13 04:24:09;;;;;;;47.47;20.27;;;9.80;99.90;;;;;;4930023;29;20063;-88
2021/12/13 04:26:43;;;;;;;53.13;21.85;;;9.80;99.90;;;;;;4904618;29;20040;-89
2021/12/13 04:29:21;;;;;;;51.00;23.10;;;9.80;99.90;;;;;;4912922;29;20075;-89
2021/12/13 04:31:49;;;;;;;49.22;20.98;;;9.80;99.90;;;;;;4896300;29;20040;-90
2021/12/13 04:34:16;;;;;;;49.25;21.00;;;9.70;99.90;;;;;;4908556;29;20075;-89
2021/12/13 04:36:58;;;;;;;55.15;20.90;;;9.70;99.90;;;;;;4882717;29;20142;-90
2021/12/13 04:39:31;;;;;;;64.07;24.38;;;9.70;99.90;;;;;;4916320;29;20044;-90
2021/12/13 04:42:00;;;;;;;;;;;9.70;99.90;;;;;;4901159;29;20047;-91
2021/12/13 04:44:52;;;;;;;46.47;20.85;;;9.70;99.90;;;;;;4910704;29;20017;-89
2021/12/13 04:47:53;;;;;;;52.95;20.85;;;9.60;99.90;;;;;;4909886;29;20043;-89
2021/12/13 04:50:27;;;;;;;52.90;21.45;;;9.60;99.90;;;;;;4903115;29;20071;-88
2021/12/13 04:52:54;;;;;;;51.05;21.20;;;9.60;99.90;;;;;;4906494;29;20055;-90
2021/12/13 04:55:24;;;;;;;61.22;21.83;;;9.60;99.90;;;;;;4883715;29;20183;-88
2021/12/13 04:57:54;;;;;;;42.15;19.75;;;9.50;99.90;;;;;;4904712;29;20047;-89
2021/12/13 05:00:28;;;;;;;43.95;20.05;;;9.50;99.90;;;;;;4908759;29;20486;-89
2021/12/13 05:02:58;;;;;;;65.05;22.17;;;9.50;99.90;;;;;;4908110;29;20685;-89
2021/12/13 05:05:34;;;;;;;58.22;21.35;;;9.40;99.90;;;;;;4894851;29;20106;-89
2021/12/13 05:08:01;;;;;;;57.80;21.40;;;9.40;99.90;;;;;;4882143;29;20473;-90
2021/12/13 05:10:30;;;;;;;55.88;22.17;;;9.30;99.90;;;;;;4863561;29;20050;-88
2021/12/13 05:13:13;;;;;;;61.70;22.10;;;9.30;99.90;;;;;;4892993;29;20047;-89
2021/12/13 05:15:45;;;;;;;54.35;21.27;;;9.30;99.90;;;;;;4911878;29;20494;-90
2021/12/13 05:18:19;;;;;;;65.05;23.42;;;9.30;99.90;;;;;;4909134;29;20717;-89
2021/12/13 05:20:45;;;;;;;53.58;21.90;;;9.30;99.90;;;;;;4897780;29;20047;-88
2021/12/13 05:23:20;;;;;;;50.85;21.23;;;9.30;99.90;;;;;;4898237;29;20032;-90
2021/12/13 05:25:57;;;;;;;64.78;22.38;;;9.30;99.90;;;;;;4903237;29;20491;-90
2021/12/13 05:28:36;;;;;;;50.90;19.42;;;9.30;99.90;;;;;;4878134;29;20487;-89
2021/12/13 05:31:15;;;;;;;59.92;21.95;;;9.30;99.90;;;;;;4911210;29;20074;-88
2021/12/13 05:33:45;;;;;;;53.25;20.65;;;9.30;99.90;;;;;;4891901;29;20134;-88
2021/12/13 05:36:34;;;;;;;59.60;21.92;;;9.30;99.90;;;;;;4879240;29;20075;-89
2021/12/13 05:39:15;;;;;;;50.50;20.48;;;9.30;99.90;;;;;;4887994;29;20495;-90
2021/12/13 05:41:54;;;;;;;39.30;17.33;;;9.30;99.90;;;;;;4895748;29;20157;-90
2021/12/13 05:44:29;;;;;;;47.45;18.98;;;9.30;99.90;;;;;;4905124;29;20031;-89
2021/12/13 05:46:57;;;;;;;39.00;17.40;;;9.30;99.90;;;;;;4911534;29;20038;-89
2021/12/13 05:49:27;;;;;;;36.50;15.77;;;9.30;99.90;;;;;;4878245;29;20051;-88
2021/12/13 05:52:02;;;;;;;43.85;17.42;;;9.30;99.90;;;;;;4900088;29;20098;-89
2021/12/13 05:54:45;;;;;;;31.70;14.32;;;9.30;99.90;;;;;;4912581;29;20114;-87
2021/12/13 05:57:17;;;;;;;32.42;15.85;;;9.30;99.90;;;;;;4896900;29;20467;-88
2021/12/13 06:00:08;;;;;;;30.77;15.40;;;9.40;99.90;;;;;;4897302;29;20040;-88
2021/12/13 06:03:08;;;;;;;31.70;14.27;;;9.30;99.90;;;;;;4906231;29;20365;-89
2021/12/13 06:05:52;;;;;;;34.05;15.07;;;9.30;99.90;;;;;;4907761;29;20251;-89
2021/12/13 06:08:27;;;;;;;41.78;16.55;;;9.40;99.90;;;;;;4886643;29;20313;-89
2021/12/13 06:10:58;;;;;;;34.13;16.35;;;9.30;99.90;;;;;;4926015;29;20038;-89
2021/12/13 06:13:44;;;;;;;39.78;17.25;;;9.30;99.90;;;;;;4910541;29;20046;-90
2021/12/13 06:16:19;;;;;;;33.13;16.67;;;9.30;99.90;;;;;;4911137;29;20043;-89
2021/12/13 06:18:57;;;;;;;36.17;18.60;;;9.30;99.90;;;;;;4911648;29;20051;-90
2021/12/13 06:21:48;;;;;;;41.45;18.38;;;9.30;99.90;;;;;;4911090;29;20068;-91
2021/12/13 06:24:25;;;;;;;41.83;18.53;;;9.40;99.90;;;;;;4908961;29;20082;-89
2021/12/13 06:27:09;;;;;;;38.42;19.20;;;9.30;99.90;;;;;;4904645;29;20371;-90
2021/12/13 06:29:48;;;;;;;41.92;20.05;;;9.30;99.90;;;;;;4902572;29;20111;-89
2021/12/13 06:32:34;;;;;;;36.00;19.52;;;9.30;99.90;;;;;;4899132;29;20398;-90
2021/12/13 06:35:41;;;;;;;41.00;20.83;;;9.40;99.90;;;;;;4908741;29;20032;-92
2021/12/13 06:38:19;;;;;;;42.10;21.33;;;9.40;99.90;;;;;;4913245;29;20107;-89
2021/12/13 06:41:15;;;;;;;38.85;20.40;;;9.40;99.90;;;;;;4907359;29;20055;-88
2021/12/13 06:43:41;;;;;;;45.22;22.30;;;9.30;99.90;;;;;;4889713;29;20039;-88
2021/12/13 06:46:28;;;;;;;42.20;21.67;;;9.30;99.90;;;;;;4904658;29;20394;-89
2021/12/13 06:49:07;;;;;;;49.40;22.45;;;9.30;99.90;;;;;;4894272;29;20562;-88
2021/12/13 06:51:42;;;;;;;48.38;23.50;;;9.30;99.90;;;;;;4893300;29;20075;-92
2021/12/13 06:54:19;;;;;;;51.10;24.25;;;9.30;99.90;;;;;;4897339;29;20039;-89
2021/12/13 06:57:00;;;;;;;46.42;24.23;;;9.30;99.90;;;;;;4894181;29;20052;-88
2021/12/13 06:59:27;;;;;;;52.33;25.75;;;9.30;99.90;;;;;;4905872;29;20123;-88
2021/12/13 07:02:02;;;;;;;43.78;24.05;;;9.30;99.90;;;;;;4913201;29;20206;-88
2021/12/13 07:04:58;;;;;;;57.38;26.02;;;9.30;99.90;;;;;;4887699;29;20084;-88
2021/12/13 07:07:56;;;;;;;50.03;26.73;;;9.30;99.90;;;;;;4909841;29;20066;-90
2021/12/13 07:10:30;;;;;;;54.47;25.45;;;9.30;99.90;;;;;;4878800;29;20071;-88
2021/12/13 07:13:29;;;;;;;53.53;25.98;;;9.30;99.90;;;;;;4920911;29;20456;-90
2021/12/13 07:16:01;;;;;;;61.50;27.83;;;9.30;99.90;;;;;;4903740;29;20074;-90
2021/12/13 07:18:44;;;;;;;58.40;29.02;;;9.30;99.90;;;;;;4908224;29;20428;-89
2021/12/13 07:21:21;;;;;;;60.78;30.70;;;9.30;99.90;;;;;;4895211;29;20131;-90
2021/12/13 07:24:02;;;;;;;64.75;30.23;;;9.40;99.90;;;;;;4908683;29;20059;-88
2021/12/13 07:26:39;;;;;;;62.30;28.90;;;9.30;99.90;;;;;;4913470;29;20178;-89
2021/12/13 07:29:21;;;;;;;68.05;30.65;;;9.30;99.90;;;;;;4910062;29;20119;-88
2021/12/13 07:32:07;;;;;;;61.92;29.20;;;9.30;99.90;;;;;;4893809;29;20538;-89
2021/12/13 07:34:45;;;;;;;58.38;30.17;;;9.30;99.90;;;;;;4918972;29;20047;-89
2021/12/13 07:37:12;;;;;;;59.72;30.40;;;9.30;99.90;;;;;;4915851;29;20130;-87
2021/12/13 07:39:37;;;;;;;73.35;33.42;;;9.30;99.90;;;;;;4901531;29;20570;-88
2021/12/13 07:42:09;;;;;;;69.18;33.08;;;9.30;99.90;;;;;;4864963;29;20043;-89
2021/12/13 07:44:41;;;;;;;64.03;32.10;;;9.30;99.90;;;;;;4882443;29;20036;-88
2021/12/13 07:47:22;;;;;;;62.28;32.13;;;9.30;99.90;;;;;;4896052;29;20043;-89
2021/12/13 07:49:57;;;;;;;65.28;35.10;;;9.30;99.90;;;;;;4891647;29;20043;-88
2021/12/13 07:52:33;;;;;;;67.93;34.50;;;9.30;99.90;;;;;;4895458;29;20035;-91
2021/12/13 07:55:22;;;;;;;65.28;34.40;;;9.30;99.90;;;;;;4894771;29;20036;-89
2021/12/13 07:57:49;;;;;;;66.78;34.00;;;9.30;99.90;;;;;;4896854;29;20102;-88
2021/12/13 08:00:29;;;;;;;87.20;36.50;;;9.30;99.90;;;;;;4895846;29;20071;-90
2021/12/13 08:03:12;;;;;;;72.00;35.97;;;9.30;99.90;;;;;;4909955;29;20554;-87
2021/12/13 08:06:00;;;;;;;74.15;37.30;;;9.30;99.90;;;;;;4929035;28;20038;-91
2021/12/13 08:08:32;;;;;;;70.38;34.80;;;9.30;99.90;;;;;;4936726;28;20035;-88
2021/12/13 08:11:00;;;;;;;71.70;37.15;;;9.30;99.90;;;;;;4896756;29;20040;-89
2021/12/13 08:13:34;;;;;;;66.80;36.03;;;9.30;99.90;;;;;;4897176;29;20130;-88
2021/12/13 08:16:05;;;;;;;67.18;36.10;;;9.30;99.90;;;;;;4911233;29;20067;-87
2021/12/13 08:18:43;;;;;;;72.10;36.25;;;9.30;99.90;;;;;;4898460;29;20337;-89
2021/12/13 08:21:23;;;;;;;62.00;32.85;;;9.30;99.90;;;;;;4911379;29;20099;-88
2021/12/13 08:23:59;;;;;;;63.97;34.70;;;9.30;99.90;;;;;;4905955;29;20052;-86
2021/12/13 08:26:34;;;;;;;63.63;35.45;;;9.30;99.90;;;;;;4907829;29;20134;-88
2021/12/13 08:29:02;;;;;;;67.30;35.72;;;9.30;99.90;;;;;;4906706;29;20031;-89
2021/12/13 08:31:34;;;;;;;59.08;33.85;;;9.30;99.90;;;;;;4907570;29;20070;-89
2021/12/13 08:34:08;;;;;;;63.17;35.05;;;9.40;99.90;;;;;;4920889;29;20116;-90
2021/12/13 08:36:48;;;;;;;64.25;35.83;;;9.40;99.90;;;;;;4917498;29;20055;-90
2021/12/13 08:39:30;;;;;;;66.28;34.92;;;9.40;99.90;;;;;;4902664;29;20032;-90
2021/12/13 08:42:00;;;;;;;61.38;34.38;;;9.40;99.90;;;;;;4933892;29;20451;-89
2021/12/13 08:44:51;;;;;;;62.95;34.25;;;9.40;99.90;;;;;;4912979;29;20051;-89
2021/12/13 08:47:24;;;;;;;56.17;32.92;;;9.40;99.90;;;;;;4923136;29;20274;-89
2021/12/13 08:50:19;;;;;;;60.72;33.45;;;9.40;99.90;;;;;;4914959;29;20134;-88
2021/12/13 08:52:47;;;;;;;54.15;32.25;;;9.40;99.90;;;;;;4879690;29;20055;-90
2021/12/13 08:55:25;;;;;;;62.53;34.05;;;9.40;99.90;;;;;;4899241;29;20042;-90
2021/12/13 08:58:17;;;;;;;56.53;32.13;;;9.40;99.90;;;;;;4907960;29;20114;-88
2021/12/13 09:01:02;;;;;;;54.03;33.42;;;9.40;99.90;;;;;;4911140;29;20062;-88
2021/12/13 09:03:38;;;;;;;54.13;32.63;;;9.40;99.90;;;;;;4896127;29;20046;-89
2021/12/13 09:06:27;;;;;;;58.95;31.95;;;9.40;99.90;;;;;;4911823;29;20517;-90
2021/12/13 09:09:15;;;;;;;58.35;33.80;;;9.40;99.90;;;;;;4909595;29;20102;-89
2021/12/13 09:12:01;;;;;;;53.60;31.00;;;9.40;99.90;;;;;;4912605;29;20506;-89
2021/12/13 09:14:38;;;;;;;59.47;34.03;;;9.40;99.90;;;;;;4896170;29;20047;-87
2021/12/13 09:17:31;;;;;;;51.17;30.60;;;9.40;99.90;;;;;;4910925;29;20035;-90
2021/12/13 09:20:04;;;;;;;60.33;31.95;;;9.40;99.90;;;;;;4900591;29;21481;-88
2021/12/13 09:22:37;;;;;;;57.20;32.75;;;9.40;99.90;;;;;;4900527;29;20040;-89
2021/12/13 09:25:14;;;;;;;57.58;31.52;;;9.40;99.90;;;;;;4900129;29;20032;-87
2021/12/13 09:27:54;;;;;;;59.10;31.77;;;9.40;99.90;;;;;;4895541;29;20114;-89
2021/12/13 09:30:26;;;;;;;54.03;30.23;;;9.40;99.90;;;;;;4897154;29;20039;-87
2021/12/13 09:33:00;;;;;;;52.42;29.90;;;9.40;99.90;;;;;;4925473;29;20047;-87
2021/12/13 09:35:41;;;;;;;54.92;30.52;;;9.40;99.90;;;;;;4912790;29;20036;-89
2021/12/13 09:38:25;;;;;;;52.03;30.92;;;9.40;99.90;;;;;;4897432;29;20043;-87
2021/12/13 09:41:01;;;;;;;48.90;28.05;;;9.40;99.90;;;;;;4928394;29;20043;-88
2021/12/13 09:43:45;;;;;;;45.70;27.73;;;9.40;99.90;;;;;;4911987;29;20071;-90
2021/12/13 09:46:15;;;;;;;50.38;30.20;;;9.50;99.90;;;;;;4894421;29;20036;-88
2021/12/13 09:48:46;;;;;;;54.25;30.77;;;9.50;99.90;;;;;;4892719;29;20422;-87
2021/12/13 09:51:23;;;;;;;47.13;27.95;;;9.50;99.90;;;;;;4912644;29;20046;-89
2021/12/13 09:53:53;;;;;;;50.42;28.20;;;9.50;99.90;;;;;;4910235;29;20102;-89
2021/12/13 09:56:21;;;;;;;45.22;27.20;;;9.50;99.90;;;;;;4913531;29;20130;-88
2021/12/13 09:58:58;;;;;;;49.20;28.65;;;9.50;99.90;;;;;;4870902;29;20051;-89
2021/12/13 10:01:31;;;;;;;51.40;28.83;;;9.50;99.90;;;;;;4911322;29;20039;-90
2021/12/13 10:04:03;;;;;;;48.15;28.02;;;9.60;99.90;;;;;;4914750;29;20069;-90
2021/12/13 10:06:47;;;;;;;52.97;29.23;;;9.60;99.90;;;;;;4898141;29;20036;-86
2021/12/13 10:09:21;;;;;;;47.03;28.40;;;9.60;99.90;;;;;;4895863;29;20584;-90
2021/12/13 10:12:01;;;;;;;49.25;29.05;;;9.60;99.90;;;;;;4899640;29;20039;-90
2021/12/13 10:14:35;;;;;;;44.00;26.70;;;9.60;99.90;;;;;;4896339;29;20095;-90
2021/12/13 10:17:05;;;;;;;46.88;25.90;;;9.60;99.90;;;;;;4928268;29;20495;-87
2021/12/13 10:19:35;;;;;;;44.15;26.65;;;9.60;99.90;;;;;;4908857;29;20052;-90
2021/12/13 10:22:03;;;;;;;49.45;27.83;;;9.60;99.90;;;;;;4897795;29;20049;-90
2021/12/13 10:24:40;;;;;;;47.55;27.15;;;9.60;99.90;;;;;;4897101;29;20471;-89
2021/12/13 10:27:09;;;;;;;47.40;26.30;;;9.60;99.90;;;;;;4915629;29;20402;-87
2021/12/13 10:29:42;;;;;;;44.80;25.92;;;9.60;99.90;;;;;;4897523;29;20397;-88
2021/12/13 10:32:10;;;;;;;;;;;9.60;99.90;;;;;;4898534;29;20044;-89
2021/12/13 10:34:45;;;;;;;49.75;26.50;;;9.60;99.90;;;;;;4926973;29;19918;-87
2021/12/13 10:37:20;;;;;;;48.33;27.05;;;9.70;99.90;;;;;;4891428;29;20044;-91
2021/12/13 10:39:50;;;;;;;41.30;24.33;;;9.70;99.90;;;;;;4924525;29;20138;-86
2021/12/13 10:42:23;;;;;;;40.95;24.60;;;9.70;99.90;;;;;;4914536;29;20093;-87
2021/12/13 10:44:52;;;;;;;;;;;9.70;99.90;;;;;;4909853;29;20040;-88
2021/12/13 10:47:37;;;;;;;38.72;22.48;;;9.70;99.90;;;;;;4898019;29;19919;-87
2021/12/13 10:50:11;;;;;;;42.03;23.95;;;9.70;99.90;;;;;;4911548;29;20036;-86
2021/12/13 10:52:41;;;;;;;38.70;24.05;;;9.70;99.90;;;;;;4912801;29;20043;-88
2021/12/13 10:55:36;;;;;;;36.97;23.65;;;9.70;99.90;;;;;;4901510;29;20039;-88
2021/12/13 10:58:03;;;;;;;34.45;21.98;;;9.70;99.90;;;;;;4898800;29;20051;-86
2021/12/13 11:00:40;;;;;;;43.03;23.33;;;9.70;99.90;;;;;;4905170;29;20047;-87
2021/12/13 11:03:09;;;;;;;43.40;23.90;;;9.80;99.90;;;;;;4910069;29;20138;-88
2021/12/13 11:05:36;;;;;;;34.03;21.27;;;9.80;99.90;;;;;;4897742;29;20050;-87
2021/12/13 11:08:06;;;;;;;40.33;23.02;;;9.80;99.90;;;;;;4902987;29;20032;-86
2021/12/13 11:10:44;;;;;;;37.70;22.38;;;9.80;99.90;;;;;;4895503;29;20520;-87
2021/12/13 11:13:10;;;;;;;35.60;21.75;;;9.80;99.90;;;;;;4901589;29;20108;-86
2021/12/13 11:15:41;;;;;;;38.38;23.40;;;9.80;99.90;;;;;;4885576;29;20171;-87
2021/12/13 11:18:12;;;;;;;39.75;22.92;;;9.80;99.90;;;;;;4897404;29;20054;-86
2021/12/13 11:20:45;;;;;;;36.15;21.90;;;9.90;99.90;;;;;;4899240;29;20036;-86
2021/12/13 11:23:14;;;;;;;38.22;22.17;;;9.90;99.90;;;;;;4912882;29;20051;-86
2021/12/13 11:25:54;;;;;;;34.90;20.25;;;9.90;99.90;;;;;;4895222;29;20330;-86
2021/12/13 11:28:20;;;;;;;38.60;21.17;;;9.90;99.90;;;;;;4889624;29;20043;-87
2021/12/13 11:30:48;;;;;;;39.78;22.23;;;9.90;99.90;;;;;;4905549;29;20039;-87
2021/12/13 11:33:39;;;;;;;36.70;21.98;;;9.90;99.90;;;;;;4881003;29;20246;-88
2021/12/13 11:36:11;;;;;;;39.00;22.38;;;9.80;99.90;;;;;;4914138;29;20043;-90
2021/12/13 11:38:43;;;;;;;37.83;22.52;;;9.90;99.90;;;;;;4895349;29;20447;-87
2021/12/13 11:41:31;;;;;;;40.17;22.52;;;9.90;99.90;;;;;;4903930;29;20031;-88
2021/12/13 11:44:23;;;;;;;38.38;22.42;;;9.90;99.90;;;;;;4901152;29;20048;-90
2021/12/13 11:47:17;;;;;;;37.53;21.33;;;9.90;99.90;;;;;;4888656;29;20052;-87
2021/12/13 11:50:30;;;;;;;41.80;21.90;;;9.90;99.90;;;;;;4925053;29;20515;-88
2021/12/13 11:53:31;;;;;;;37.60;21.65;;;9.90;99.90;;;;;;4865330;29;20498;-87
2021/12/13 11:56:25;;;;;;;35.90;20.83;;;9.90;99.90;;;;;;4906777;29;20039;-88
2021/12/13 11:58:59;;;;;;;39.80;22.48;;;9.90;99.90;;;;;;4918187;29;20055;-87
2021/12/13 12:01:43;;;;;;;37.42;20.63;;;9.90;99.90;;;;;;4897915;29;20224;-87
2021/12/13 12:04:47;;;;;;;38.75;21.83;;;9.90;99.90;;;;;;4908758;29;20056;-88
2021/12/13 12:07:13;;;;;;;38.10;21.60;;;9.90;99.90;;;;;;4909885;29;20058;-87
2021/12/13 12:10:00;;;;;;;36.42;22.27;;;9.90;99.90;;;;;;4914825;29;20123;-88
2021/12/13 12:12:45;;;;;;;35.33;20.95;;;9.90;99.90;;;;;;4910107;29;20039;-86
2021/12/13 12:15:11;;;;;;;37.75;20.75;;;10.00;99.90;;;;;;4912729;29;20047;-87
2021/12/13 12:17:38;;;;;;;37.80;22.02;;;10.00;99.90;;;;;;4907813;29;20044;-88
2021/12/13 12:20:16;;;;;;;39.70;21.60;;;10.00;99.90;;;;;;4908634;29;20031;-86
2021/12/13 12:22:58;;;;;;;35.13;21.50;;;10.00;99.90;;;;;;4908350;29;20063;-87
2021/12/13 12:25:32;;;;;;;38.05;20.20;;;10.00;99.90;;;;;;4896096;29;20533;-87
2021/12/13 12:28:13;;;;;;;33.55;20.10;;;10.00;99.90;;;;;;4910922;29;20122;-87
2021/12/13 12:30:46;;;;;;;34.92;20.67;;;10.00;99.90;;;;;;4898089;29;20106;-86
2021/12/13 12:33:23;;;;;;;33.97;20.45;;;10.00;99.90;;;;;;4925436;29;20043;-88
2021/12/13 12:35:49;;;;;;;39.78;21.45;;;10.00;99.90;;;;;;4912245;29;20043;-87
2021/12/13 12:38:33;;;;;;;34.60;20.42;;;10.00;99.90;;;;;;4896570;29;20422;-87
2021/12/13 12:41:30;;;;;;;38.63;20.58;;;10.00;99.90;;;;;;4910883;29;20062;-87
2021/12/13 12:43:57;;;;;;;38.78;21.42;;;10.00;99.90;;;;;;4898204;29;20091;-87
2021/12/13 12:46:23;;;;;;;35.92;21.98;;;10.00;99.90;;;;;;4880914;29;20234;-88
2021/12/13 12:48:57;;;;;;;32.47;20.00;;;10.00;99.90;;;;;;4894284;29;20408;-87
2021/12/13 12:51:30;;;;;;;34.17;20.83;;;10.00;99.90;;;;;;4906307;29;20066;-88
2021/12/13 12:54:15;;;;;;;36.25;20.33;;;10.00;99.90;;;;;;4911111;29;20195;-86
2021/12/13 12:56:53;;;;;;;38.33;21.40;;;10.00;99.90;;;;;;4907080;29;20040;-87
2021/12/13 12:59:26;;;;;;;39.40;20.38;;;10.00;99.90;;;;;;4892969;29;20573;-87
2021/12/13 13:01:59;;;;;;;35.30;20.58;;;10.00;99.90;;;;;;4906721;29;20238;-88
2021/12/13 13:04:50;;;;;;;34.33;20.45;;;10.00;99.90;;;;;;4884952;29;20084;-86
2021/12/13 13:07:21;;;;;;;36.15;19.58;;;10.10;99.90;;;;;;4916732;29;20070;-87
2021/12/13 13:09:47;;;;;;;34.17;19.40;;;10.10;99.90;;;;;;4893705;29;20094;-86
2021/12/13 13:12:36;;;;;;;37.92;20.63;;;10.10;99.90;;;;;;4896291;29;20040;-86
2021/12/13 13:15:16;;;;;;;38.65;20.85;;;10.10;99.90;;;;;;4908578;29;20043;-86
2021/12/13 13:17:46;;;;;;;36.00;20.80;;;10.10;99.90;;;;;;4921349;29;20035;-86
2021/12/13 13:20:38;;;;;;;37.13;20.90;;;10.10;99.90;;;;;;4902669;29;20040;-85
2021/12/13 13:23:06;;;;;;;30.42;19.17;;;10.20;99.90;;;;;;4894154;29;20486;-87
2021/12/13 13:25:54;;;;;;;33.25;19.63;;;10.10;99.90;;;;;;4879109;29;20494;-87
2021/12/13 13:28:23;;;;;;;32.60;20.05;;;10.20;99.90;;;;;;4911756;29;20039;-87
2021/12/13 13:31:11;;;;;;;35.65;19.38;;;10.20;99.90;;;;;;4894170;29;20058;-87
2021/12/13 13:33:45;;;;;;;30.13;19.38;;;10.20;99.90;;;;;;4892797;29;22195;-88
2021/12/13 13:36:16;;;;;;;33.70;20.27;;;10.30;99.90;;;;;;4909132;29;20047;-87
2021/12/13 13:38:42;;;;;;;37.63;20.00;;;10.30;99.90;;;;;;4891292;29;20131;-86
2021/12/13 13:41:10;;;;;;;33.15;20.02;;;10.30;99.90;;;;;;4874955;29;20526;-87
2021/12/13 13:43:39;;;;;;;38.05;19.85;;;10.30;99.90;;;;;;4906766;29;20662;-87
2021/12/13 13:46:06;;;;;;;35.10;20.65;;;10.30;99.90;;;;;;4901409;29;20035;-87
2021/12/13 13:48:38;;;;;;;34.45;19.45;;;10.30;99.90;;;;;;4888786;29;20051;-86
2021/12/13 13:51:18;;;;;;;31.27;19.30;;;10.30;99.90;;;;;;4897509;29;20112;-87
2021/12/13 13:53:53;;;;;;;34.60;19.77;;;10.30;99.90;;;;;;4895674;29;20039;-84
2021/12/13 13:56:21;;;;;;;33.17;19.90;;;10.30;99.90;;;;;;4891125;29;20483;-85
2021/12/13 13:58:57;;;;;;;36.80;20.27;;;10.40;99.90;;;;;;4884390;29;20040;-87
2021/12/13 14:01:39;;;;;;;32.45;17.75;;;10.30;99.90;;;;;;4896006;29;20123;-86
2021/12/13 14:04:20;;;;;;;30.60;18.55;;;10.30;99.90;;;;;;4900316;29;20036;-87
2021/12/13 14:07:08;;;;;;;32.22;20.10;;;10.30;99.90;;;;;;4908369;29;20036;-86